OAL883 FACT-FALE
Flight info
| Callsign | OAL883 |
|---|---|
| Flight time | 1h 41m |
| Altitude | 37000 |
| Route | OKTED UQ12 DUNSA |
| Aircraft | B38M/M-SDE1FGHILORVWXY/HB1 |
Departure
| Time | 2026-05-04 17:17 |
|---|---|
| Airport | Cape Town International Airport (FACT) |
Arrival
| Time | 2026-05-04 18:59 |
|---|---|
| Airport | King Shaka International Airport (FALE) |
| Time | Latitude | Longitude | Altitude | Speed | Heading |
|---|---|---|---|---|---|
| 2026-05-04 17:00 | -33.96693 | 18.59926 | 157 ft | 0 kts | 76° |
| 2026-05-04 17:08 | -33.96693 | 18.59925 | 157 ft | 2 kts | 76° |
| 2026-05-04 17:08 | -33.96708 | 18.59866 | 157 ft | 4 kts | 62° |
| 2026-05-04 17:08 | -33.96723 | 18.59845 | 157 ft | 4 kts | 12° |
| 2026-05-04 17:09 | -33.96731 | 18.59845 | 157 ft | 1 kts | 344° |
| 2026-05-04 17:13 | -33.96644 | 18.59816 | 157 ft | 13 kts | 345° |
| 2026-05-04 17:14 | -33.96330 | 18.59741 | 157 ft | 14 kts | 350° |
| 2026-05-04 17:14 | -33.96242 | 18.59729 | 157 ft | 12 kts | 9° |
| 2026-05-04 17:14 | -33.96125 | 18.59849 | 156 ft | 0 kts | 45° |
| 2026-05-04 17:15 | -33.96122 | 18.59851 | 156 ft | 1 kts | 45° |
| 2026-05-04 17:15 | -33.96083 | 18.59900 | 156 ft | 13 kts | 45° |
| 2026-05-04 17:16 | -33.96061 | 18.60035 | 156 ft | 8 kts | 172° |
| 2026-05-04 17:16 | -33.97310 | 18.60427 | 155 ft | 156 kts | 165° |
| 2026-05-04 17:17 | -33.98482 | 18.60814 | 468 ft | 182 kts | 162° |
| 2026-05-04 17:17 | -34.02412 | 18.62287 | 2508 ft | 221 kts | 166° |
| 2026-05-04 17:18 | -34.03993 | 18.62862 | 2996 ft | 249 kts | 166° |
| 2026-05-04 17:18 | -34.07144 | 18.64826 | 4589 ft | 279 kts | 132° |
| 2026-05-04 17:19 | -34.09072 | 18.68949 | 6514 ft | 288 kts | 120° |
| 2026-05-04 17:19 | -34.11019 | 18.73267 | 8336 ft | 296 kts | 119° |
| 2026-05-04 17:20 | -34.13018 | 18.77704 | 10092 ft | 306 kts | 119° |
| 2026-05-04 17:20 | -34.15154 | 18.82444 | 10995 ft | 342 kts | 119° |
| 2026-05-04 17:20 | -34.16317 | 18.85031 | 11440 ft | 358 kts | 119° |
| 2026-05-04 17:21 | -34.18275 | 18.90609 | 12925 ft | 369 kts | 99° |
| 2026-05-04 17:21 | -34.18692 | 18.96895 | 14403 ft | 378 kts | 92° |
| 2026-05-04 17:22 | -34.18877 | 19.00091 | 15048 ft | 384 kts | 92° |
| 2026-05-04 17:22 | -34.19061 | 19.03287 | 15711 ft | 389 kts | 91° |
| 2026-05-04 17:23 | -34.19638 | 19.13272 | 17605 ft | 406 kts | 90° |
| 2026-05-04 17:23 | -34.19833 | 19.16697 | 18205 ft | 411 kts | 89° |
| 2026-05-04 17:23 | -34.20229 | 19.23666 | 19286 ft | 420 kts | 88° |
| 2026-05-04 17:24 | -34.20427 | 19.27205 | 19813 ft | 425 kts | 88° |
| 2026-05-04 17:24 | -34.21031 | 19.38055 | 21391 ft | 438 kts | 87° |
| 2026-05-04 17:25 | -34.21233 | 19.41724 | 21916 ft | 442 kts | 87° |
| 2026-05-04 17:25 | -34.21641 | 19.49197 | 22916 ft | 449 kts | 85° |
| 2026-05-04 17:26 | -34.21927 | 19.56806 | 23743 ft | 450 kts | 76° |
| 2026-05-04 17:26 | -34.21169 | 19.68181 | 24991 ft | 457 kts | 76° |
| 2026-05-04 17:27 | -34.20647 | 19.75865 | 25832 ft | 463 kts | 76° |
| 2026-05-04 17:27 | -34.20111 | 19.83654 | 26589 ft | 468 kts | 75° |
| 2026-05-04 17:28 | -34.19566 | 19.91539 | 27369 ft | 474 kts | 75° |
| 2026-05-04 17:29 | -34.18729 | 20.03458 | 28505 ft | 482 kts | 75° |
| 2026-05-04 17:29 | -34.17863 | 20.15636 | 29522 ft | 489 kts | 74° |
| 2026-05-04 17:30 | -34.14703 | 20.26806 | 30358 ft | 468 kts | 54° |
| 2026-05-04 17:31 | -34.12060 | 20.34010 | 30888 ft | 472 kts | 54° |
| 2026-05-04 17:31 | -34.07984 | 20.44927 | 31694 ft | 479 kts | 54° |
| 2026-05-04 17:32 | -34.05225 | 20.52288 | 32207 ft | 483 kts | 53° |
| 2026-05-04 17:33 | -34.01066 | 20.63356 | 33242 ft | 484 kts | 53° |
| 2026-05-04 17:33 | -33.99672 | 20.67057 | 33582 ft | 484 kts | 53° |
| 2026-05-04 17:34 | -33.95506 | 20.78095 | 34361 ft | 485 kts | 54° |
| 2026-05-04 17:34 | -33.94104 | 20.81799 | 34467 ft | 486 kts | 53° |
| 2026-05-04 17:35 | -33.89896 | 20.92900 | 35208 ft | 486 kts | 53° |
| 2026-05-04 17:35 | -33.87088 | 21.00287 | 35728 ft | 485 kts | 53° |
| 2026-05-04 17:35 | -33.85683 | 21.03975 | 35981 ft | 485 kts | 54° |
| 2026-05-04 17:36 | -33.84753 | 21.06416 | 36147 ft | 485 kts | 54° |
| 2026-05-04 17:36 | -33.83346 | 21.10106 | 36379 ft | 485 kts | 54° |
| 2026-05-04 17:36 | -33.81485 | 21.14979 | 36668 ft | 485 kts | 54° |
| 2026-05-04 17:36 | -33.80076 | 21.18661 | 36842 ft | 486 kts | 54° |
| 2026-05-04 17:37 | -33.78660 | 21.22360 | 36992 ft | 487 kts | 54° |
| 2026-05-04 17:37 | -33.76283 | 21.28560 | 36999 ft | 487 kts | 54° |
| 2026-05-04 17:38 | -33.73454 | 21.35926 | 37006 ft | 486 kts | 54° |
| 2026-05-04 17:38 | -33.70623 | 21.43277 | 36998 ft | 485 kts | 54° |
| 2026-05-04 17:39 | -33.66384 | 21.54257 | 37012 ft | 487 kts | 54° |
| 2026-05-04 17:39 | -33.63536 | 21.61616 | 36996 ft | 485 kts | 53° |
| 2026-05-04 17:40 | -33.60696 | 21.68933 | 37005 ft | 485 kts | 53° |
| 2026-05-04 17:40 | -33.57843 | 21.76272 | 37003 ft | 485 kts | 53° |
| 2026-05-04 17:41 | -33.54986 | 21.83601 | 36978 ft | 485 kts | 53° |
| 2026-05-04 17:41 | -33.52113 | 21.90961 | 36996 ft | 486 kts | 53° |
| 2026-05-04 17:42 | -33.49267 | 21.98232 | 36986 ft | 486 kts | 53° |
| 2026-05-04 17:42 | -33.46388 | 22.05569 | 36968 ft | 486 kts | 53° |
| 2026-05-04 17:43 | -33.43510 | 22.12894 | 36998 ft | 487 kts | 53° |
| 2026-05-04 17:43 | -33.40626 | 22.20214 | 37009 ft | 487 kts | 52° |
| 2026-05-04 17:44 | -33.37733 | 22.27545 | 36974 ft | 487 kts | 52° |
| 2026-05-04 17:44 | -33.34835 | 22.34874 | 36982 ft | 488 kts | 52° |
| 2026-05-04 17:45 | -33.32070 | 22.42314 | 37002 ft | 494 kts | 57° |
| 2026-05-04 17:45 | -33.29599 | 22.49975 | 36956 ft | 495 kts | 56° |
| 2026-05-04 17:46 | -33.27072 | 22.57628 | 36982 ft | 494 kts | 56° |
| 2026-05-04 17:46 | -33.24543 | 22.65256 | 36971 ft | 494 kts | 56° |
| 2026-05-04 17:47 | -33.22026 | 22.72832 | 36967 ft | 494 kts | 56° |
| 2026-05-04 17:47 | -33.19494 | 22.80432 | 36927 ft | 494 kts | 56° |
| 2026-05-04 17:48 | -33.16935 | 22.88097 | 36973 ft | 497 kts | 56° |
| 2026-05-04 17:48 | -33.14386 | 22.95765 | 36958 ft | 497 kts | 56° |
| 2026-05-04 17:49 | -33.11847 | 23.03439 | 36955 ft | 497 kts | 56° |
| 2026-05-04 17:49 | -33.09311 | 23.11085 | 36907 ft | 497 kts | 56° |
| 2026-05-04 17:50 | -33.06783 | 23.18687 | 36948 ft | 497 kts | 56° |
| 2026-05-04 17:50 | -33.04230 | 23.26349 | 36941 ft | 497 kts | 56° |
| 2026-05-04 17:51 | -33.01675 | 23.33993 | 36942 ft | 497 kts | 56° |
| 2026-05-04 17:51 | -32.99109 | 23.41655 | 36944 ft | 497 kts | 56° |
| 2026-05-04 17:52 | -32.96547 | 23.49288 | 36939 ft | 495 kts | 56° |
| 2026-05-04 17:52 | -32.93990 | 23.56891 | 36932 ft | 494 kts | 56° |
| 2026-05-04 17:53 | -32.91454 | 23.64421 | 36905 ft | 494 kts | 55° |
| 2026-05-04 17:53 | -32.88891 | 23.72014 | 36930 ft | 495 kts | 55° |
| 2026-05-04 17:54 | -32.86319 | 23.79616 | 36911 ft | 493 kts | 55° |
| 2026-05-04 17:54 | -32.83757 | 23.87170 | 36925 ft | 492 kts | 55° |
| 2026-05-04 17:55 | -32.81198 | 23.94697 | 36922 ft | 492 kts | 55° |
| 2026-05-04 17:55 | -32.78628 | 24.02239 | 36922 ft | 492 kts | 55° |
| 2026-05-04 17:56 | -32.76061 | 24.09756 | 36894 ft | 492 kts | 55° |
| 2026-05-04 17:56 | -32.73499 | 24.17240 | 36932 ft | 494 kts | 55° |
| 2026-05-04 17:57 | -32.70909 | 24.24787 | 36928 ft | 494 kts | 55° |
| 2026-05-04 17:57 | -32.68306 | 24.32356 | 36920 ft | 494 kts | 55° |
| 2026-05-04 17:58 | -32.65706 | 24.39900 | 36861 ft | 494 kts | 55° |
| 2026-05-04 17:58 | -32.63106 | 24.47424 | 36938 ft | 494 kts | 55° |
| 2026-05-04 17:59 | -32.60496 | 24.54959 | 36915 ft | 493 kts | 55° |
| 2026-05-04 18:00 | -32.56593 | 24.66197 | 36918 ft | 493 kts | 55° |
| 2026-05-04 18:00 | -32.53996 | 24.73651 | 36922 ft | 493 kts | 55° |
| 2026-05-04 18:01 | -32.51373 | 24.81167 | 36919 ft | 493 kts | 55° |
| 2026-05-04 18:01 | -32.48747 | 24.88672 | 36920 ft | 493 kts | 55° |
| 2026-05-04 18:02 | -32.44804 | 24.99907 | 36919 ft | 493 kts | 55° |
| 2026-05-04 18:02 | -32.42166 | 25.07403 | 36918 ft | 494 kts | 55° |
| 2026-05-04 18:03 | -32.39531 | 25.14873 | 36968 ft | 495 kts | 55° |
| 2026-05-04 18:03 | -32.36880 | 25.22375 | 36905 ft | 493 kts | 54° |
| 2026-05-04 18:04 | -32.34231 | 25.29851 | 36946 ft | 494 kts | 55° |
| 2026-05-04 18:05 | -32.30239 | 25.41088 | 36873 ft | 493 kts | 54° |
| 2026-05-04 18:05 | -32.27593 | 25.48518 | 36899 ft | 494 kts | 55° |
| 2026-05-04 18:06 | -32.23620 | 25.59633 | 36932 ft | 493 kts | 54° |
| 2026-05-04 18:06 | -32.20950 | 25.67088 | 36900 ft | 493 kts | 54° |
| 2026-05-04 18:07 | -32.18265 | 25.74565 | 36922 ft | 494 kts | 54° |
| 2026-05-04 18:07 | -32.15588 | 25.82002 | 36932 ft | 494 kts | 54° |
| 2026-05-04 18:08 | -32.12901 | 25.89453 | 36941 ft | 494 kts | 54° |
| 2026-05-04 18:08 | -32.10227 | 25.96852 | 36911 ft | 493 kts | 54° |
| 2026-05-04 18:09 | -32.04815 | 26.11771 | 36948 ft | 495 kts | 54° |
| 2026-05-04 18:10 | -32.02107 | 26.19219 | 36949 ft | 494 kts | 54° |
| 2026-05-04 18:10 | -31.99390 | 26.26676 | 36923 ft | 495 kts | 54° |
| 2026-05-04 18:11 | -31.96668 | 26.34119 | 36958 ft | 496 kts | 54° |
| 2026-05-04 18:11 | -31.93937 | 26.41525 | 36954 ft | 496 kts | 54° |
| 2026-05-04 18:12 | -31.91189 | 26.48979 | 36960 ft | 496 kts | 54° |
| 2026-05-04 18:12 | -31.88439 | 26.56419 | 36960 ft | 496 kts | 54° |
| 2026-05-04 18:13 | -31.85681 | 26.63867 | 36958 ft | 500 kts | 54° |
| 2026-05-04 18:14 | -31.81509 | 26.75102 | 36922 ft | 498 kts | 54° |
| 2026-05-04 18:14 | -31.78735 | 26.82567 | 36961 ft | 500 kts | 54° |
| 2026-05-04 18:15 | -31.73173 | 26.97531 | 36950 ft | 499 kts | 54° |
| 2026-05-04 18:16 | -31.70383 | 27.05012 | 36966 ft | 499 kts | 54° |
| 2026-05-04 18:16 | -31.67608 | 27.12436 | 36949 ft | 500 kts | 54° |
| 2026-05-04 18:17 | -31.63433 | 27.23576 | 36927 ft | 496 kts | 55° |
| 2026-05-04 18:18 | -31.59237 | 27.34735 | 36974 ft | 498 kts | 54° |
| 2026-05-04 18:18 | -31.56446 | 27.42140 | 36988 ft | 498 kts | 54° |
| 2026-05-04 18:19 | -31.52239 | 27.53268 | 36981 ft | 498 kts | 55° |
| 2026-05-04 18:19 | -31.49441 | 27.60651 | 36974 ft | 498 kts | 55° |
| 2026-05-04 18:20 | -31.46626 | 27.68061 | 36989 ft | 498 kts | 55° |
| 2026-05-04 18:20 | -31.43810 | 27.75460 | 36972 ft | 498 kts | 55° |
| 2026-05-04 18:21 | -31.40985 | 27.82873 | 37002 ft | 498 kts | 55° |
| 2026-05-04 18:21 | -31.38140 | 27.90255 | 36986 ft | 498 kts | 54° |
| 2026-05-04 18:22 | -31.35297 | 27.97612 | 37005 ft | 498 kts | 54° |
| 2026-05-04 18:22 | -31.32456 | 28.04947 | 36983 ft | 497 kts | 54° |
| 2026-05-04 18:23 | -31.29595 | 28.12328 | 37002 ft | 499 kts | 54° |
| 2026-05-04 18:23 | -31.26736 | 28.19739 | 36990 ft | 500 kts | 54° |
| 2026-05-04 18:24 | -31.23879 | 28.27124 | 36993 ft | 500 kts | 54° |
| 2026-05-04 18:24 | -31.21496 | 28.33270 | 36998 ft | 499 kts | 54° |
| 2026-05-04 18:25 | -31.18617 | 28.40683 | 36982 ft | 501 kts | 54° |
| 2026-05-04 18:25 | -31.15258 | 28.49311 | 36990 ft | 504 kts | 54° |
| 2026-05-04 18:26 | -31.12839 | 28.55510 | 36990 ft | 504 kts | 54° |
| 2026-05-04 18:26 | -31.09928 | 28.62962 | 36984 ft | 504 kts | 54° |
| 2026-05-04 18:27 | -31.07018 | 28.70391 | 36981 ft | 504 kts | 55° |
| 2026-05-04 18:27 | -31.04093 | 28.77844 | 36965 ft | 507 kts | 55° |
| 2026-05-04 18:28 | -31.01147 | 28.85341 | 36993 ft | 508 kts | 55° |
| 2026-05-04 18:28 | -30.98222 | 28.92780 | 36991 ft | 508 kts | 55° |
| 2026-05-04 18:29 | -30.95271 | 29.00275 | 36984 ft | 509 kts | 56° |
| 2026-05-04 18:29 | -30.92315 | 29.07760 | 35961 ft | 516 kts | 56° |
| 2026-05-04 18:30 | -30.89353 | 29.15258 | 35075 ft | 502 kts | 56° |
| 2026-05-04 18:30 | -30.87884 | 29.18963 | 34432 ft | 501 kts | 56° |
| 2026-05-04 18:30 | -30.86430 | 29.22630 | 33831 ft | 498 kts | 57° |
| 2026-05-04 18:31 | -30.84993 | 29.26247 | 33157 ft | 496 kts | 57° |
| 2026-05-04 18:31 | -30.83556 | 29.29868 | 32591 ft | 492 kts | 57° |
| 2026-05-04 18:31 | -30.82128 | 29.33459 | 32037 ft | 487 kts | 57° |
| 2026-05-04 18:31 | -30.80710 | 29.37023 | 31507 ft | 483 kts | 57° |
| 2026-05-04 18:32 | -30.79299 | 29.40563 | 31002 ft | 479 kts | 57° |
| 2026-05-04 18:32 | -30.77904 | 29.44060 | 30534 ft | 474 kts | 57° |
| 2026-05-04 18:32 | -30.76518 | 29.47530 | 30097 ft | 469 kts | 57° |
| 2026-05-04 18:32 | -30.75146 | 29.50962 | 29555 ft | 465 kts | 58° |
| 2026-05-04 18:33 | -30.73804 | 29.54318 | 29032 ft | 461 kts | 57° |
| 2026-05-04 18:33 | -30.72461 | 29.57669 | 28458 ft | 458 kts | 57° |
| 2026-05-04 18:33 | -30.71119 | 29.61020 | 27928 ft | 455 kts | 57° |
| 2026-05-04 18:33 | -30.69789 | 29.64336 | 27464 ft | 450 kts | 57° |
| 2026-05-04 18:34 | -30.68470 | 29.67625 | 26977 ft | 447 kts | 57° |
| 2026-05-04 18:34 | -30.67161 | 29.70881 | 26510 ft | 443 kts | 57° |
| 2026-05-04 18:34 | -30.65861 | 29.74112 | 26059 ft | 440 kts | 57° |
| 2026-05-04 18:34 | -30.64565 | 29.77331 | 25617 ft | 436 kts | 57° |
| 2026-05-04 18:35 | -30.63286 | 29.80505 | 25173 ft | 433 kts | 57° |
| 2026-05-04 18:35 | -30.62035 | 29.83607 | 24705 ft | 430 kts | 57° |
| 2026-05-04 18:35 | -30.60768 | 29.86746 | 24281 ft | 427 kts | 57° |
| 2026-05-04 18:35 | -30.59514 | 29.89850 | 23927 ft | 422 kts | 57° |
| 2026-05-04 18:36 | -30.58272 | 29.92925 | 23533 ft | 419 kts | 57° |
| 2026-05-04 18:36 | -30.57038 | 29.95976 | 23048 ft | 416 kts | 57° |
| 2026-05-04 18:36 | -30.55812 | 29.99007 | 22593 ft | 413 kts | 58° |
| 2026-05-04 18:36 | -30.54573 | 30.01998 | 22136 ft | 406 kts | 53° |
| 2026-05-04 18:37 | -30.52959 | 30.04601 | 21722 ft | 394 kts | 44° |
| 2026-05-04 18:37 | -30.51299 | 30.07118 | 21218 ft | 394 kts | 45° |
| 2026-05-04 18:37 | -30.49644 | 30.09632 | 20761 ft | 391 kts | 45° |
| 2026-05-04 18:37 | -30.48014 | 30.12093 | 20346 ft | 388 kts | 46° |
| 2026-05-04 18:38 | -30.46375 | 30.14559 | 19929 ft | 386 kts | 46° |
| 2026-05-04 18:38 | -30.44736 | 30.17019 | 19511 ft | 383 kts | 46° |
| 2026-05-04 18:38 | -30.43108 | 30.19463 | 19018 ft | 384 kts | 46° |
| 2026-05-04 18:38 | -30.41481 | 30.21903 | 18629 ft | 382 kts | 46° |
| 2026-05-04 18:39 | -30.39855 | 30.24336 | 18218 ft | 380 kts | 46° |
| 2026-05-04 18:39 | -30.38241 | 30.26755 | 17752 ft | 379 kts | 46° |
| 2026-05-04 18:39 | -30.36634 | 30.29162 | 17336 ft | 375 kts | 46° |
| 2026-05-04 18:39 | -30.35045 | 30.31539 | 16905 ft | 374 kts | 47° |
| 2026-05-04 18:40 | -30.33457 | 30.33913 | 16540 ft | 370 kts | 47° |
| 2026-05-04 18:40 | -30.31883 | 30.36263 | 16137 ft | 368 kts | 47° |
| 2026-05-04 18:40 | -30.30340 | 30.38569 | 15737 ft | 366 kts | 47° |
| 2026-05-04 18:40 | -30.28786 | 30.40889 | 15335 ft | 364 kts | 47° |
| 2026-05-04 18:41 | -30.27250 | 30.43181 | 15083 ft | 357 kts | 47° |
| 2026-05-04 18:41 | -30.25749 | 30.45418 | 14914 ft | 348 kts | 47° |
| 2026-05-04 18:41 | -30.24281 | 30.47606 | 14775 ft | 338 kts | 47° |
| 2026-05-04 18:41 | -30.22753 | 30.49605 | 14614 ft | 326 kts | 38° |
| 2026-05-04 18:42 | -30.21121 | 30.51390 | 14431 ft | 319 kts | 39° |
| 2026-05-04 18:42 | -30.19550 | 30.53150 | 14231 ft | 314 kts | 39° |
| 2026-05-04 18:42 | -30.17998 | 30.54905 | 14035 ft | 310 kts | 40° |
| 2026-05-04 18:42 | -30.16466 | 30.56650 | 13839 ft | 308 kts | 40° |
| 2026-05-04 18:43 | -30.14953 | 30.58378 | 13635 ft | 305 kts | 40° |
| 2026-05-04 18:43 | -30.13447 | 30.60100 | 13401 ft | 304 kts | 40° |
| 2026-05-04 18:43 | -30.11966 | 30.61793 | 13163 ft | 303 kts | 40° |
| 2026-05-04 18:43 | -30.10471 | 30.63502 | 12928 ft | 302 kts | 41° |
| 2026-05-04 18:44 | -30.08979 | 30.65206 | 12677 ft | 301 kts | 41° |
| 2026-05-04 18:44 | -30.07977 | 30.66350 | 12507 ft | 300 kts | 41° |
| 2026-05-04 18:44 | -30.06014 | 30.68591 | 12207 ft | 299 kts | 41° |
| 2026-05-04 18:44 | -30.04542 | 30.70271 | 11979 ft | 296 kts | 41° |
| 2026-05-04 18:45 | -30.03085 | 30.71933 | 11735 ft | 295 kts | 41° |
| 2026-05-04 18:45 | -30.01619 | 30.73602 | 11511 ft | 299 kts | 42° |
| 2026-05-04 18:45 | -30.00135 | 30.75292 | 11295 ft | 299 kts | 41° |
| 2026-05-04 18:45 | -29.98636 | 30.76953 | 11081 ft | 298 kts | 41° |
| 2026-05-04 18:46 | -29.97140 | 30.78609 | 10877 ft | 298 kts | 41° |
| 2026-05-04 18:46 | -29.95646 | 30.80265 | 10675 ft | 297 kts | 42° |
| 2026-05-04 18:46 | -29.94157 | 30.81916 | 10470 ft | 296 kts | 42° |
| 2026-05-04 18:46 | -29.92673 | 30.83559 | 10270 ft | 295 kts | 42° |
| 2026-05-04 18:47 | -29.91194 | 30.85197 | 10071 ft | 295 kts | 42° |
| 2026-05-04 18:47 | -29.89716 | 30.86833 | 9881 ft | 294 kts | 42° |
| 2026-05-04 18:47 | -29.88165 | 30.88355 | 9685 ft | 292 kts | 35° |
| 2026-05-04 18:47 | -29.86535 | 30.89756 | 9493 ft | 292 kts | 35° |
| 2026-05-04 18:48 | -29.84913 | 30.91170 | 9296 ft | 291 kts | 36° |
| 2026-05-04 18:48 | -29.83341 | 30.92552 | 9092 ft | 288 kts | 36° |
| 2026-05-04 18:48 | -29.81766 | 30.93943 | 8872 ft | 283 kts | 36° |
| 2026-05-04 18:48 | -29.80217 | 30.95309 | 8654 ft | 278 kts | 35° |
| 2026-05-04 18:49 | -29.78684 | 30.96642 | 8396 ft | 275 kts | 35° |
| 2026-05-04 18:49 | -29.77185 | 30.97980 | 8251 ft | 267 kts | 37° |
| 2026-05-04 18:49 | -29.75754 | 30.99272 | 8282 ft | 258 kts | 36° |
| 2026-05-04 18:49 | -29.74327 | 31.00531 | 8323 ft | 259 kts | 35° |
| 2026-05-04 18:50 | -29.72882 | 31.01789 | 8279 ft | 259 kts | 35° |
| 2026-05-04 18:50 | -29.71443 | 31.03039 | 8267 ft | 259 kts | 35° |
| 2026-05-04 18:50 | -29.69999 | 31.04280 | 8246 ft | 260 kts | 34° |
| 2026-05-04 18:50 | -29.68558 | 31.05534 | 7796 ft | 260 kts | 35° |
| 2026-05-04 18:51 | -29.67060 | 31.06816 | 6623 ft | 283 kts | 34° |
| 2026-05-04 18:51 | -29.65455 | 31.08215 | 5626 ft | 292 kts | 36° |
| 2026-05-04 18:51 | -29.63871 | 31.09619 | 5020 ft | 284 kts | 35° |
| 2026-05-04 18:51 | -29.62356 | 31.10888 | 4821 ft | 258 kts | 34° |
| 2026-05-04 18:52 | -29.60956 | 31.12087 | 4456 ft | 243 kts | 36° |
| 2026-05-04 18:52 | -29.59711 | 31.13339 | 3961 ft | 238 kts | 49° |
| 2026-05-04 18:52 | -29.58885 | 31.14932 | 3664 ft | 223 kts | 63° |
| 2026-05-04 18:52 | -29.58278 | 31.16492 | 3567 ft | 201 kts | 66° |
| 2026-05-04 18:53 | -29.57919 | 31.17898 | 3687 ft | 171 kts | 88° |
| 2026-05-04 18:53 | -29.58152 | 31.19245 | 3915 ft | 176 kts | 102° |
| 2026-05-04 18:53 | -29.58474 | 31.20633 | 4081 ft | 185 kts | 101° |
| 2026-05-04 18:53 | -29.58801 | 31.22089 | 4249 ft | 191 kts | 101° |
| 2026-05-04 18:54 | -29.59118 | 31.23584 | 4168 ft | 192 kts | 94° |
| 2026-05-04 18:54 | -29.58885 | 31.25026 | 3904 ft | 183 kts | 56° |
| 2026-05-04 18:54 | -29.57948 | 31.25918 | 3654 ft | 179 kts | 18° |
| 2026-05-04 18:54 | -29.56715 | 31.25919 | 3444 ft | 181 kts | 346° |
| 2026-05-04 18:55 | -29.55509 | 31.25438 | 3218 ft | 185 kts | 341° |
| 2026-05-04 18:55 | -29.53496 | 31.23665 | 2460 ft | 189 kts | 302° |
| 2026-05-04 18:55 | -29.53164 | 31.22210 | 2074 ft | 186 kts | 277° |
| 2026-05-04 18:56 | -29.53092 | 31.20791 | 1767 ft | 171 kts | 275° |
| 2026-05-04 18:56 | -29.53313 | 31.19486 | 1396 ft | 168 kts | 239° |
| 2026-05-04 18:56 | -29.54035 | 31.18494 | 1108 ft | 155 kts | 226° |
| 2026-05-04 18:56 | -29.54810 | 31.17692 | 967 ft | 148 kts | 219° |
| 2026-05-04 18:57 | -29.55605 | 31.16947 | 949 ft | 148 kts | 220° |
| 2026-05-04 18:57 | -29.56384 | 31.16178 | 889 ft | 148 kts | 220° |
| 2026-05-04 18:57 | -29.57175 | 31.15432 | 757 ft | 146 kts | 218° |
| 2026-05-04 18:57 | -29.57976 | 31.14721 | 634 ft | 145 kts | 216° |
| 2026-05-04 18:58 | -29.58763 | 31.14043 | 517 ft | 142 kts | 216° |
| 2026-05-04 18:58 | -29.59546 | 31.13353 | 367 ft | 141 kts | 215° |
| 2026-05-04 18:58 | -29.60307 | 31.12684 | 286 ft | 128 kts | 214° |
| 2026-05-04 18:58 | -29.60950 | 31.12128 | 283 ft | 102 kts | 217° |
| 2026-05-04 18:59 | -29.61394 | 31.11747 | 286 ft | 52 kts | 218° |
| 2026-05-04 18:59 | -29.61574 | 31.11586 | 284 ft | 18 kts | 218° |
| 2026-05-04 18:59 | -29.61733 | 31.11446 | 283 ft | 34 kts | 217° |
| 2026-05-04 18:59 | -29.61931 | 31.11276 | 283 ft | 36 kts | 217° |
| 2026-05-04 19:00 | -29.62130 | 31.11102 | 285 ft | 34 kts | 217° |
| 2026-05-04 19:00 | -29.62292 | 31.10959 | 285 ft | 24 kts | 217° |
| 2026-05-04 19:00 | -29.62411 | 31.10853 | 285 ft | 20 kts | 218° |
| 2026-05-04 19:00 | -29.62475 | 31.10745 | 283 ft | 14 kts | 279° |
| 2026-05-04 19:01 | -29.62413 | 31.10655 | 283 ft | 11 kts | 310° |
| 2026-05-04 19:01 | -29.62365 | 31.10586 | 283 ft | 9 kts | 308° |
| 2026-05-04 19:01 | -29.62346 | 31.10558 | 283 ft | 2 kts | 308° |
| 2026-05-04 19:01 | -29.62333 | 31.10539 | 283 ft | 0 kts | 308° |
| 2026-05-04 19:02 | -29.62327 | 31.10530 | 283 ft | 3 kts | 308° |
| 2026-05-04 19:02 | -29.62308 | 31.10502 | 283 ft | 8 kts | 308° |
| 2026-05-04 19:02 | -29.62264 | 31.10442 | 283 ft | 9 kts | 327° |
| 2026-05-04 19:02 | -29.62199 | 31.10461 | 283 ft | 11 kts | 34° |
| 2026-05-04 19:03 | -29.62132 | 31.10516 | 283 ft | 12 kts | 36° |
| 2026-05-04 19:03 | -29.62066 | 31.10574 | 283 ft | 11 kts | 37° |
| 2026-05-04 19:03 | -29.62017 | 31.10616 | 283 ft | 0 kts | 37° |
| 2026-05-04 19:03 | -29.62014 | 31.10619 | 283 ft | 0 kts | 37° |
| 2026-05-04 19:04 | -29.62013 | 31.10620 | 283 ft | 1 kts | 37° |
| 2026-05-04 19:04 | -29.62001 | 31.10630 | 283 ft | 3 kts | 37° |
| 2026-05-04 19:04 | -29.61975 | 31.10653 | 283 ft | 6 kts | 37° |
| 2026-05-04 19:04 | -29.61938 | 31.10685 | 283 ft | 4 kts | 37° |
| 2026-05-04 19:05 | -29.61910 | 31.10710 | 283 ft | 5 kts | 37° |
| 2026-05-04 19:05 | -29.61891 | 31.10727 | 283 ft | 1 kts | 37° |
| 2026-05-04 19:05 | -29.61878 | 31.10736 | 283 ft | 3 kts | 23° |
| 2026-05-04 19:05 | -29.61865 | 31.10736 | 283 ft | 2 kts | 347° |
| 2026-05-04 19:06 | -29.61850 | 31.10723 | 283 ft | 4 kts | 315° |
| 2026-05-04 19:06 | -29.61837 | 31.10708 | 283 ft | 3 kts | 310° |
| 2026-05-04 19:06 | -29.61830 | 31.10697 | 283 ft | 1 kts | 308° |
| 2026-05-04 19:06 | -29.61829 | 31.10695 | 283 ft | 0 kts | 308° |